createdAt,value
2022-12-23T00:01:00.958Z,95266.06
2022-12-23T00:03:29.497Z,95261.03
2022-12-23T00:05:56.499Z,95244.88
2022-12-23T00:08:24.853Z,95267.75
2022-12-23T00:10:52.254Z,95253.94
2022-12-23T00:13:38.227Z,95260.28
2022-12-23T00:16:07.397Z,95265.34
2022-12-23T00:18:34.798Z,95247.34
2022-12-23T00:21:08.557Z,95238.66
2022-12-23T00:23:38.763Z,95226.69
2022-12-23T00:26:06.616Z,95227.41
2022-12-23T00:28:33.496Z,95212.22
2022-12-23T00:31:04.001Z,95228.00
2022-12-23T00:33:42.528Z,95215.78
2022-12-23T00:36:12.370Z,95211.53
2022-12-23T00:38:57.730Z,95201.38
2022-12-23T00:41:43.008Z,95182.47
2022-12-23T00:44:09.854Z,95178.44
2022-12-23T00:46:36.781Z,95183.28
2022-12-23T00:49:21.919Z,95173.19
2022-12-23T00:51:48.755Z,95173.09
2022-12-23T00:54:15.583Z,95163.78
2022-12-23T00:56:42.254Z,95160.91
2022-12-23T00:59:09.109Z,95146.91
2022-12-23T01:01:54.512Z,95109.56
2022-12-23T01:04:40.025Z,95147.56
2022-12-23T01:07:07.111Z,95172.31
2022-12-23T01:09:34.489Z,95156.63
2022-12-23T01:12:01.583Z,95157.28
2022-12-23T01:14:28.908Z,95149.38
2022-12-23T01:16:55.721Z,95147.78
2022-12-23T01:19:22.780Z,95126.66
2022-12-23T01:21:49.516Z,95155.56
2022-12-23T01:24:16.361Z,95124.41
2022-12-23T01:26:43.145Z,95149.16
2022-12-23T01:29:09.856Z,95144.78
2022-12-23T01:31:36.706Z,95136.09
2022-12-23T01:34:03.449Z,95157.56
2022-12-23T01:36:30.149Z,95141.13
2022-12-23T01:38:57.397Z,95125.19
2022-12-23T01:41:45.247Z,95148.94
2022-12-23T01:44:49.184Z,95123.59
2022-12-23T01:47:28.077Z,95150.25
2022-12-23T01:50:12.796Z,95136.50
2022-12-23T01:53:07.781Z,95127.13
2022-12-23T01:56:00.845Z,95146.44
2022-12-23T01:58:36.754Z,95143.53
2022-12-23T02:01:26.362Z,95136.22
2022-12-23T02:03:59.788Z,95122.81
2022-12-23T02:06:48.480Z,95131.28
2022-12-23T02:09:21.397Z,95124.00
2022-12-23T02:12:06.719Z,95106.56
2022-12-23T02:15:10.707Z,95122.56
2022-12-23T02:17:51.581Z,95140.16
2022-12-23T02:20:40.247Z,95136.72
2022-12-23T02:23:19.142Z,95136.78
2022-12-23T02:25:54.981Z,95145.31
2022-12-23T02:28:49.460Z,95150.31
2022-12-23T02:31:39.162Z,95150.38
2022-12-23T02:34:29.961Z,95150.38
2022-12-23T02:37:10.528Z,95149.72
2022-12-23T02:39:48.446Z,95143.88
2022-12-23T02:42:22.843Z,95137.22
2022-12-23T02:45:09.978Z,95158.44
2022-12-23T02:47:41.218Z,95160.06
2022-12-23T02:50:17.760Z,95153.59
2022-12-23T02:52:47.631Z,95133.31
2022-12-23T02:55:20.768Z,95155.06
2022-12-23T02:57:51.080Z,95147.34
2022-12-23T03:00:18.994Z,95157.97
2022-12-23T03:02:46.132Z,95152.44
2022-12-23T03:05:39.259Z,95149.81
2022-12-23T03:08:12.489Z,95162.88
2022-12-23T03:11:04.091Z,95161.66
2022-12-23T03:13:42.521Z,95166.03
2022-12-23T03:16:18.282Z,95156.97
2022-12-23T03:19:23.513Z,95162.09
2022-12-23T03:22:35.670Z,95157.94
2022-12-23T03:25:17.462Z,95149.53
2022-12-23T03:27:58.881Z,95153.03
2022-12-23T03:30:25.801Z,95156.69
2022-12-23T03:32:59.834Z,95164.13
2022-12-23T03:35:33.803Z,95164.13
2022-12-23T03:38:03.465Z,95168.00
2022-12-23T03:40:36.858Z,95150.63
2022-12-23T03:43:08.106Z,95168.00
2022-12-23T03:45:43.659Z,95157.47
2022-12-23T03:48:18.333Z,95160.44
2022-12-23T03:50:48.775Z,95153.97
2022-12-23T03:53:41.021Z,95167.22
2022-12-23T03:56:19.334Z,95156.50
2022-12-23T03:58:56.323Z,95158.03
2022-12-23T04:01:52.352Z,95166.78
2022-12-23T04:04:50.915Z,95174.75
2022-12-23T04:07:23.696Z,95177.66
2022-12-23T04:09:53.366Z,95160.53
2022-12-23T04:12:24.055Z,95167.66
2022-12-23T04:14:51.626Z,95173.63
2022-12-23T04:17:19.265Z,95176.34
2022-12-23T04:19:47.174Z,95179.38
2022-12-23T04:22:15.488Z,95191.47
2022-12-23T04:24:43.032Z,95180.94
2022-12-23T04:27:13.075Z,95177.06
2022-12-23T04:29:39.836Z,95195.28
2022-12-23T04:32:07.908Z,95199.72
2022-12-23T04:34:34.707Z,95205.59
2022-12-23T04:37:01.577Z,95181.31
2022-12-23T04:39:28.241Z,95191.69
2022-12-23T04:41:55.056Z,95192.19
2022-12-23T04:44:21.711Z,95209.84
2022-12-23T04:46:48.376Z,95205.44
2022-12-23T04:49:15.083Z,95205.50
2022-12-23T04:51:41.739Z,95198.13
2022-12-23T04:54:08.440Z,95205.34
2022-12-23T04:56:35.051Z,95216.09
2022-12-23T04:59:02.467Z,95221.97
2022-12-23T05:01:29.809Z,95206.91
2022-12-23T05:03:56.605Z,95204.91
2022-12-23T05:06:23.293Z,95210.16
2022-12-23T05:08:49.919Z,95212.81
2022-12-23T05:11:16.663Z,95218.03
2022-12-23T05:13:43.377Z,95210.09
2022-12-23T05:16:10.234Z,95203.00
2022-12-23T05:18:36.914Z,95217.34
2022-12-23T05:21:03.725Z,95219.56
2022-12-23T05:23:30.580Z,95218.78
2022-12-23T05:25:57.191Z,95220.38
2022-12-23T05:28:24.250Z,95220.53
2022-12-23T05:31:01.527Z,95216.13
2022-12-23T05:33:28.767Z,95228.28
2022-12-23T05:35:55.914Z,95227.75
2022-12-23T05:38:23.228Z,95220.59
2022-12-23T05:40:50.175Z,95222.72
2022-12-23T05:43:17.120Z,95216.00
2022-12-23T05:45:50.280Z,95230.19
2022-12-23T05:48:20.266Z,95235.06
2022-12-23T05:50:51.076Z,95223.63
2022-12-23T05:53:17.924Z,95242.97
2022-12-23T05:55:44.643Z,95265.78
2022-12-23T05:58:11.521Z,95228.75
2022-12-23T06:00:38.220Z,95245.06
2022-12-23T06:03:05.077Z,95248.59
2022-12-23T06:05:31.855Z,95243.88
2022-12-23T06:07:58.507Z,95244.63
2022-12-23T06:10:25.205Z,95243.88
2022-12-23T06:12:51.886Z,95258.00
2022-12-23T06:15:18.628Z,95256.69
2022-12-23T06:17:45.409Z,95257.16
2022-12-23T06:20:19.938Z,95273.88
2022-12-23T06:22:47.841Z,95276.81
2022-12-23T06:25:14.583Z,95293.00
2022-12-23T06:27:41.292Z,95269.56
2022-12-23T06:30:11.508Z,95237.63
2022-12-23T06:32:48.803Z,95276.22
2022-12-23T06:35:15.640Z,95288.66
2022-12-23T06:37:42.540Z,95241.81
2022-12-23T06:40:09.888Z,95271.22
2022-12-23T06:42:36.842Z,95317.00
2022-12-23T06:45:06.595Z,95303.06
2022-12-23T06:47:54.174Z,95304.88
2022-12-23T06:50:24.167Z,95283.56
2022-12-23T06:52:50.810Z,95308.50
2022-12-23T06:55:17.443Z,95304.03
2022-12-23T06:57:45.034Z,95318.72
2022-12-23T07:00:15.456Z,95254.34
2022-12-23T07:02:42.325Z,95336.69
2022-12-23T07:05:09.648Z,95296.84
2022-12-23T07:07:36.827Z,95341.03
2022-12-23T07:10:03.929Z,95326.91
2022-12-23T07:12:30.645Z,95350.06
2022-12-23T07:14:57.335Z,95346.66
2022-12-23T07:17:24.108Z,95330.97
2022-12-23T07:20:05.973Z,95329.16
2022-12-23T07:23:04.018Z,95315.78
2022-12-23T07:25:34.564Z,95330.69
2022-12-23T07:28:01.687Z,95332.22
2022-12-23T07:30:30.488Z,95300.94
2022-12-23T07:33:01.147Z,95364.47
2022-12-23T07:35:28.289Z,95356.91
2022-12-23T07:38:05.253Z,95334.22
2022-12-23T07:40:34.895Z,95292.22
2022-12-23T07:43:02.078Z,95325.69
2022-12-23T07:46:05.606Z,95358.75
2022-12-23T07:48:32.314Z,95342.44
2022-12-23T07:51:03.117Z,95375.63
2022-12-23T07:53:29.876Z,95352.31
2022-12-23T07:55:57.148Z,95361.16
2022-12-23T07:58:24.452Z,95366.28
2022-12-23T08:00:51.637Z,95372.13
2022-12-23T08:03:18.397Z,95370.53
2022-12-23T08:05:45.283Z,95351.19
2022-12-23T08:08:12.665Z,95379.22
2022-12-23T08:10:46.150Z,95365.00
2022-12-23T08:13:14.939Z,95389.31
2022-12-23T08:15:41.743Z,95376.31
2022-12-23T08:18:08.434Z,95387.41
2022-12-23T08:20:35.123Z,95368.13
2022-12-23T08:23:01.727Z,95388.25
2022-12-23T08:25:28.432Z,95383.94
2022-12-23T08:27:55.101Z,95385.28
2022-12-23T08:30:22.043Z,95386.03
2022-12-23T08:32:48.763Z,95382.47
2022-12-23T08:35:15.644Z,95384.63
2022-12-23T08:37:42.247Z,95380.88
2022-12-23T08:40:09.408Z,95373.06
2022-12-23T08:42:36.043Z,95378.72
2022-12-23T08:45:02.830Z,95374.41
2022-12-23T08:47:29.478Z,95373.78
2022-12-23T08:49:56.224Z,95384.63
2022-12-23T08:52:22.958Z,95372.59
2022-12-23T08:54:49.589Z,95367.41
2022-12-23T08:57:16.279Z,95390.34
2022-12-23T08:59:43.107Z,95383.81
2022-12-23T09:02:11.839Z,95392.44
2022-12-23T09:04:38.551Z,95415.56
2022-12-23T09:07:05.197Z,95416.44
2022-12-23T09:09:31.997Z,95432.34
2022-12-23T09:11:58.651Z,95433.03
2022-12-23T09:14:25.338Z,95435.84
2022-12-23T09:16:52.617Z,95438.13
2022-12-23T09:19:19.339Z,95431.00
2022-12-23T09:21:46.336Z,95433.22
2022-12-23T09:24:13.013Z,95429.03
2022-12-23T09:26:39.865Z,95407.34
2022-12-23T09:29:06.618Z,95403.56
2022-12-23T09:31:37.294Z,95405.22
2022-12-23T09:34:05.828Z,95415.31
2022-12-23T09:36:32.622Z,95400.44
2022-12-23T09:38:59.662Z,95397.66
2022-12-23T09:41:35.061Z,95407.06
2022-12-23T09:44:07.449Z,95408.47
2022-12-23T09:46:38.220Z,95405.41
2022-12-23T09:49:12.375Z,95398.38
2022-12-23T09:51:39.396Z,95396.44
2022-12-23T09:54:20.420Z,95403.75
2022-12-23T09:56:57.574Z,95400.22
2022-12-23T09:59:42.223Z,95388.91
2022-12-23T10:02:08.927Z,95393.91
2022-12-23T10:04:45.629Z,95388.00
2022-12-23T10:07:33.149Z,95386.00
2022-12-23T10:10:07.464Z,95382.59
2022-12-23T10:12:44.972Z,95383.88
2022-12-23T10:15:39.334Z,95384.06
2022-12-23T10:18:40.341Z,95394.84
2022-12-23T10:21:15.559Z,95395.63
2022-12-23T10:23:46.448Z,95382.81
2022-12-23T10:26:25.154Z,95377.88
2022-12-23T10:29:05.480Z,95375.16
2022-12-23T10:31:45.581Z,95370.91
2022-12-23T10:34:22.373Z,95373.06
2022-12-23T10:36:59.045Z,95370.91
2022-12-23T10:39:35.478Z,95376.69
2022-12-23T10:42:08.583Z,95378.84
2022-12-23T10:44:59.479Z,95376.06
2022-12-23T10:47:41.030Z,95365.41
2022-12-23T10:50:26.677Z,95361.09
2022-12-23T10:52:57.913Z,95359.78
2022-12-23T10:55:33.138Z,95362.72
2022-12-23T10:58:07.729Z,95361.19
2022-12-23T11:00:38.212Z,95364.69
2022-12-23T11:03:27.441Z,95363.97
2022-12-23T11:05:54.924Z,95366.06
2022-12-23T11:08:23.146Z,95367.34
2022-12-23T11:10:50.445Z,95370.91
2022-12-23T11:13:36.649Z,95354.28
2022-12-23T11:16:28.848Z,95363.31
2022-12-23T11:19:13.517Z,95362.06
2022-12-23T11:21:57.439Z,95361.31
2022-12-23T11:24:25.398Z,95359.88
2022-12-23T11:27:02.472Z,95359.09
2022-12-23T11:29:36.482Z,95356.28
2022-12-23T11:32:17.216Z,95345.44
2022-12-23T11:34:47.536Z,95345.31
2022-12-23T11:37:44.040Z,95336.28
2022-12-23T11:40:35.657Z,95345.56
2022-12-23T11:43:07.421Z,95350.50
2022-12-23T11:45:36.909Z,95335.47
2022-12-23T11:48:05.360Z,95336.22
2022-12-23T11:50:31.991Z,95335.47
2022-12-23T11:53:12.223Z,95334.88
2022-12-23T11:55:46.512Z,95322.00
2022-12-23T11:58:19.907Z,95327.09
2022-12-23T12:00:56.450Z,95313.53
2022-12-23T12:03:34.870Z,95316.44
2022-12-23T12:06:05.154Z,95307.81
2022-12-23T12:08:35.515Z,95311.50
2022-12-23T12:11:07.558Z,95311.56
2022-12-23T12:13:50.764Z,95317.28
2022-12-23T12:16:52.759Z,95311.81
2022-12-23T12:19:28.199Z,95308.31
2022-12-23T12:21:59.537Z,95293.34
2022-12-23T12:24:32.052Z,95282.63
2022-12-23T12:27:04.841Z,95279.03
2022-12-23T12:29:55.658Z,95275.47
2022-12-23T12:32:41.043Z,95275.53
2022-12-23T12:35:19.687Z,95269.06
2022-12-23T12:37:57.576Z,95274.84
2022-12-23T12:40:45.705Z,95272.72
2022-12-23T12:43:37.961Z,95259.81
2022-12-23T12:46:24.376Z,95263.41
2022-12-23T12:49:15.172Z,95262.69
2022-12-23T12:52:00.323Z,95256.97
2022-12-23T12:54:39.751Z,95257.47
2022-12-23T12:57:06.937Z,95251.75
2022-12-23T12:59:39.035Z,95257.63
2022-12-23T13:02:20.659Z,95248.97
2022-12-23T13:04:47.962Z,95256.75
2022-12-23T13:07:26.586Z,95253.66
2022-12-23T13:10:20.174Z,95248.56
2022-12-23T13:13:13.632Z,95262.06
2022-12-23T13:15:49.560Z,95259.81
2022-12-23T13:18:35.788Z,95252.56
2022-12-23T13:21:12.714Z,95256.91
2022-12-23T13:23:52.503Z,95248.84
2022-12-23T13:26:31.888Z,95246.75
2022-12-23T13:29:23.137Z,95235.06
2022-12-23T13:32:14.821Z,95238.75
2022-12-23T13:35:04.855Z,95233.63
2022-12-23T13:37:45.592Z,95232.09
2022-12-23T13:40:33.890Z,95228.50
2022-12-23T13:43:10.217Z,95229.06
2022-12-23T13:45:39.872Z,95232.50
2022-12-23T13:49:05.012Z,95226.84
2022-12-23T13:51:43.906Z,95246.69
2022-12-23T13:54:16.387Z,95240.97
2022-12-23T13:56:55.125Z,95237.31
2022-12-23T13:59:21.825Z,95225.75
2022-12-23T14:01:52.549Z,95232.22
2022-12-23T14:04:35.867Z,95227.78
2022-12-23T14:07:20.537Z,95229.88
2022-12-23T14:09:59.171Z,95221.25
2022-12-23T14:12:38.143Z,95214.81
2022-12-23T14:15:32.578Z,95209.88
2022-12-23T14:18:08.385Z,95211.97
2022-12-23T14:20:53.005Z,95207.72
2022-12-23T14:23:31.890Z,95214.81
2022-12-23T14:26:25.193Z,95206.84
2022-12-23T14:29:10.602Z,95220.47
2022-12-23T14:31:42.666Z,95223.84
2022-12-23T14:34:18.370Z,95214.81
2022-12-23T14:37:20.446Z,95216.16
2022-12-23T14:39:48.118Z,95210.97
2022-12-23T14:42:34.254Z,95206.06
2022-12-23T14:45:41.701Z,95202.16
2022-12-23T14:48:36.062Z,95198.56
2022-12-23T14:51:23.765Z,95199.25
2022-12-23T14:53:59.529Z,95192.00
2022-12-23T14:56:26.307Z,95187.00
2022-12-23T14:59:14.611Z,95185.03
2022-12-23T15:01:53.060Z,95184.16
2022-12-23T15:04:24.871Z,95179.84
2022-12-23T15:06:55.760Z,95184.97
2022-12-23T15:09:26.896Z,95184.22
2022-12-23T15:11:55.751Z,95191.34
2022-12-23T15:14:35.803Z,95187.69
2022-12-23T15:17:25.956Z,95186.44
2022-12-23T15:19:53.409Z,95183.69
2022-12-23T15:22:25.625Z,95184.44
2022-12-23T15:24:55.051Z,95194.38
2022-12-23T15:27:30.349Z,95190.75
2022-12-23T15:29:57.851Z,95193.66
2022-12-23T15:32:26.817Z,95189.28
2022-12-23T15:35:04.301Z,95181.63
2022-12-23T15:37:32.511Z,95177.78
2022-12-23T15:40:09.289Z,95190.69
2022-12-23T15:42:38.667Z,95196.13
2022-12-23T15:45:41.574Z,95190.44
2022-12-23T15:48:25.226Z,95198.31
2022-12-23T15:50:55.231Z,95179.59
2022-12-23T15:53:22.082Z,95190.19
2022-12-23T15:55:49.920Z,95176.50
2022-12-23T15:58:23.130Z,95186.00
2022-12-23T16:00:53.293Z,95185.94
2022-12-23T16:03:42.698Z,95170.13
2022-12-23T16:06:18.543Z,95181.75
2022-12-23T16:08:55.063Z,95177.44
2022-12-23T16:11:22.988Z,95169.31
2022-12-23T16:14:34.070Z,95159.81
2022-12-23T16:17:13.172Z,95141.44
2022-12-23T16:19:52.892Z,95170.84
2022-12-23T16:22:22.836Z,95113.09
2022-12-23T16:25:02.184Z,95183.41
2022-12-23T16:27:43.942Z,95163.09
2022-12-23T16:30:22.177Z,95133.59
2022-12-23T16:36:46.897Z,95157.41
2022-12-23T16:39:21.896Z,95144.38
2022-12-23T16:41:49.907Z,95154.28
2022-12-23T16:44:16.781Z,95133.97
2022-12-23T16:46:48.272Z,95138.16
2022-12-23T16:49:33.234Z,95130.19
2022-12-23T16:52:01.091Z,95140.94
2022-12-23T16:54:32.455Z,95143.97
2022-12-23T16:57:03.505Z,95086.63
2022-12-23T16:59:39.582Z,95093.91
2022-12-23T17:02:24.202Z,95177.56
2022-12-23T17:04:54.258Z,95161.44
2022-12-23T17:07:23.324Z,95153.19
2022-12-23T17:09:55.746Z,95157.13
2022-12-23T17:12:22.838Z,95135.88
2022-12-23T17:14:49.573Z,95150.69
2022-12-23T17:17:16.310Z,95152.09
2022-12-23T17:19:43.179Z,95156.53
2022-12-23T17:22:13.248Z,95176.06
2022-12-23T17:24:40.093Z,95149.19
2022-12-23T17:27:13.712Z,95163.41
2022-12-23T17:29:47.385Z,95076.28
2022-12-23T17:32:17.951Z,95174.22
2022-12-23T17:34:52.423Z,95193.19
2022-12-23T17:37:21.602Z,95163.88
2022-12-23T17:39:48.659Z,95159.97
2022-12-23T17:42:24.976Z,95169.66
2022-12-23T17:44:52.409Z,95176.03
2022-12-23T17:47:22.395Z,95194.31
2022-12-23T17:49:52.383Z,95191.09
2022-12-23T17:52:26.639Z,95214.81
2022-12-23T17:54:53.644Z,95186.59
2022-12-23T17:57:23.461Z,95148.44
2022-12-23T17:59:52.227Z,95125.19
2022-12-23T18:02:26.092Z,95179.91
2022-12-23T18:04:57.354Z,95159.09
2022-12-23T18:07:28.121Z,95162.25
2022-12-23T18:09:55.251Z,95162.47
2022-12-23T18:12:39.879Z,95185.69
2022-12-23T18:15:14.308Z,95117.53
2022-12-23T18:17:41.119Z,95132.69
2022-12-23T18:20:15.255Z,95177.34
2022-12-23T18:22:42.448Z,95180.59
2022-12-23T18:25:22.216Z,95172.88
2022-12-23T18:27:49.721Z,95179.63
2022-12-23T18:30:16.963Z,95187.78
2022-12-23T18:32:44.625Z,95147.22
2022-12-23T18:35:30.548Z,95160.97
2022-12-23T18:37:58.938Z,95186.38
2022-12-23T18:40:32.559Z,95177.75
2022-12-23T18:43:00.009Z,95174.59
2022-12-23T18:45:29.525Z,95178.56
2022-12-23T18:47:57.342Z,95177.22
2022-12-23T18:50:25.680Z,95162.53
2022-12-23T18:52:52.703Z,95126.97
2022-12-23T18:55:20.209Z,95183.78
2022-12-23T18:57:48.575Z,95164.63
2022-12-23T19:00:19.310Z,95147.34
2022-12-23T19:02:46.621Z,95182.63
2022-12-23T19:05:28.650Z,95130.38
2022-12-23T19:07:57.570Z,95166.22
2022-12-23T19:10:26.602Z,95166.28
2022-12-23T19:12:54.176Z,95171.31
2022-12-23T19:15:22.951Z,95164.56
2022-12-23T19:17:52.963Z,95168.34
2022-12-23T19:20:20.954Z,95151.38
2022-12-23T19:22:48.771Z,95169.25
2022-12-23T19:25:18.880Z,95179.75
2022-12-23T19:27:46.441Z,95160.94
2022-12-23T19:30:16.643Z,95160.59
2022-12-23T19:32:44.291Z,95185.81
2022-12-23T19:35:14.952Z,95159.09
2022-12-23T19:37:42.779Z,95149.84
2022-12-23T19:40:10.643Z,95182.34
2022-12-23T19:42:39.172Z,95171.06
2022-12-23T19:45:08.178Z,95185.66
2022-12-23T19:47:36.657Z,95161.09
2022-12-23T19:50:11.845Z,95183.84
2022-12-23T19:52:41.256Z,95186.66
2022-12-23T19:55:12.904Z,95217.53
2022-12-23T19:57:39.943Z,95182.78
2022-12-23T20:00:08.083Z,95139.88
2022-12-23T20:02:40.798Z,95159.13
2022-12-23T20:05:11.521Z,95150.69
2022-12-23T20:07:38.534Z,95196.47
2022-12-23T20:10:06.761Z,95168.75
2022-12-23T20:12:33.631Z,95177.19
2022-12-23T20:15:03.334Z,95182.19
2022-12-23T20:17:30.102Z,95190.25
2022-12-23T20:19:57.562Z,95180.41
2022-12-23T20:22:24.479Z,95150.38
2022-12-23T20:24:51.427Z,95171.84
2022-12-23T20:27:22.656Z,95189.97
2022-12-23T20:29:52.980Z,95150.44
2022-12-23T20:32:19.808Z,95207.66
2022-12-23T20:34:48.053Z,95204.88
2022-12-23T20:37:16.169Z,95162.66
2022-12-23T20:39:42.898Z,95204.34
2022-12-23T20:42:09.588Z,95206.50
2022-12-23T20:44:39.341Z,95228.81
2022-12-23T20:47:06.507Z,95218.09
2022-12-23T20:49:33.643Z,95218.00
2022-12-23T20:52:01.101Z,95196.41
2022-12-23T20:54:32.839Z,95235.44
2022-12-23T20:57:01.923Z,95279.97
2022-12-23T20:59:28.880Z,95256.69
2022-12-23T21:02:02.758Z,95288.22
2022-12-23T21:04:35.051Z,95243.19
2022-12-23T21:07:05.857Z,95234.44
2022-12-23T21:09:38.323Z,95255.31
2022-12-23T21:12:07.675Z,95239.63
2022-12-23T21:14:37.683Z,95268.50
2022-12-23T21:17:04.617Z,95271.84
2022-12-23T21:19:31.422Z,95327.09
2022-12-23T21:21:58.379Z,95308.16
2022-12-23T21:24:25.833Z,95222.41
2022-12-23T21:27:04.415Z,95214.06
2022-12-23T21:29:31.565Z,95288.31
2022-12-23T21:32:00.364Z,95338.94
2022-12-23T21:34:27.331Z,95346.47
2022-12-23T21:36:54.304Z,95350.97
2022-12-23T21:39:21.173Z,95330.47
2022-12-23T21:41:51.057Z,95323.97
2022-12-23T21:44:17.941Z,95331.47
2022-12-23T21:46:44.870Z,95319.78
2022-12-23T21:49:12.052Z,95353.31
2022-12-23T21:51:41.253Z,95350.56
2022-12-23T21:54:10.537Z,95366.84
2022-12-23T21:56:49.014Z,95362.19
2022-12-23T21:59:24.210Z,95311.81
2022-12-23T22:02:05.169Z,95296.84
2022-12-23T22:04:32.313Z,95361.44
2022-12-23T22:06:59.447Z,95332.91
2022-12-23T22:09:32.991Z,95354.84
2022-12-23T22:11:59.975Z,95376.00
2022-12-23T22:14:27.356Z,95416.44
2022-12-23T22:16:54.171Z,95357.53
2022-12-23T22:19:20.936Z,95392.00
2022-12-23T22:21:47.685Z,95379.13
2022-12-23T22:24:14.733Z,95389.72
2022-12-23T22:26:41.994Z,95379.13
2022-12-23T22:29:10.619Z,95397.13
2022-12-23T22:31:43.086Z,95391.56
2022-12-23T22:34:14.019Z,95394.50
2022-12-23T22:36:40.815Z,95382.94
2022-12-23T22:39:08.252Z,95383.13
2022-12-23T22:41:35.511Z,95382.53
2022-12-23T22:44:02.205Z,95376.75
2022-12-23T22:46:29.228Z,95378.88
2022-12-23T22:48:56.515Z,95391.72
2022-12-23T22:51:26.463Z,95398.97
2022-12-23T22:53:53.809Z,95388.56
2022-12-23T22:56:21.823Z,95399.69
2022-12-23T22:58:49.770Z,95415.00
2022-12-23T23:01:26.018Z,95405.03
2022-12-23T23:03:57.578Z,95410.72
2022-12-23T23:06:30.091Z,95409.84
2022-12-23T23:08:57.061Z,95414.84
2022-12-23T23:11:25.564Z,95406.41
2022-12-23T23:13:52.561Z,95420.56
2022-12-23T23:16:19.451Z,95421.97
2022-12-23T23:18:46.651Z,95404.06
2022-12-23T23:21:14.636Z,95420.03
2022-12-23T23:23:41.516Z,95414.25
2022-12-23T23:26:11.039Z,95415.91
2022-12-23T23:28:39.443Z,95420.16
2022-12-23T23:31:40.616Z,95409.34
2022-12-23T23:33:53.972Z,95433.66
2022-12-23T23:36:20.997Z,95421.81
2022-12-23T23:38:47.746Z,95449.53
2022-12-23T23:41:18.897Z,95435.06
2022-12-23T23:43:49.436Z,95421.09
2022-12-23T23:46:16.123Z,95446.03
2022-12-23T23:48:42.812Z,95463.00
2022-12-23T23:51:09.488Z,95464.47
2022-12-23T23:53:42.127Z,95453.88
2022-12-23T23:56:09.366Z,95439.44
2022-12-23T23:58:36.792Z,95445.34
